Time;durP1;ratioP1;P1;durP2;ratioP2;P2;SDS_P1;SDS_P2;PMS_P1;PMS_P2;Temp;Humidity;BMP_temperature;BMP_pressure;BME280_temperature;BME280_humidity;BME280_pressure;Samples;Min_cycle;Max_cycle;Signal;HPM_P1;HPM_P2
2022/09/29 00:01:10;;;;;;;7.93;5.22;;;8.20;99.90;;;;;;5137319;27;20043;-72
2022/09/29 00:03:36;;;;;;;7.50;6.05;;;8.20;99.90;;;;;;5160560;27;20098;-73
2022/09/29 00:06:01;;;;;;;9.77;5.63;;;8.20;99.90;;;;;;5152890;27;20074;-72
2022/09/29 00:08:29;;;;;;;6.90;5.60;;;8.20;99.90;;;;;;5135833;27;20095;-72
2022/09/29 00:10:56;;;;;;;8.30;5.80;;;9.00;99.90;;;;;;5172137;27;20042;-72
2022/09/29 00:13:22;;;;;;;8.60;6.18;;;8.20;99.90;;;;;;5157001;27;20394;-72
2022/09/29 00:15:58;;;;;;;8.18;6.40;;;8.30;99.90;;;;;;5154985;27;20074;-72
2022/09/29 00:18:24;;;;;;;7.38;5.97;;;8.20;99.90;;;;;;5155020;27;20042;-72
2022/09/29 00:20:57;;;;;;;9.13;6.03;;;8.20;99.90;;;;;;5152547;27;20163;-72
2022/09/29 00:23:23;;;;;;;7.53;6.05;;;8.20;99.90;;;;;;5135492;27;20051;-72
2022/09/29 00:25:58;;;;;;;8.23;6.38;;;8.50;99.90;;;;;;5154415;27;20403;-72
2022/09/29 00:28:24;;;;;;;10.13;6.20;;;8.90;99.90;;;;;;5136226;27;20043;-72
2022/09/29 00:30:50;;;;;;;9.70;6.88;;;8.10;99.90;;;;;;5153799;27;20039;-72
2022/09/29 00:33:15;;;;;;;9.70;6.45;;;8.10;99.90;;;;;;5114909;27;20042;-72
2022/09/29 00:35:41;;;;;;;8.25;6.90;;;8.10;99.90;;;;;;5153847;27;20054;-71
2022/09/29 00:38:06;;;;;;;8.95;6.82;;;8.00;99.90;;;;;;5154750;27;20530;-71
2022/09/29 00:40:33;;;;;;;9.02;6.80;;;8.00;99.90;;;;;;5152685;27;20114;-71
2022/09/29 00:42:59;;;;;;;8.90;7.05;;;8.00;99.90;;;;;;5154392;27;20043;-70
2022/09/29 00:45:25;;;;;;;11.07;7.50;;;7.90;99.90;;;;;;5154382;27;20095;-71
2022/09/29 00:48:05;;;;;;;9.07;7.20;;;7.90;99.90;;;;;;5119143;27;20505;-70
2022/09/29 00:50:42;;;;;;;12.25;7.50;;;7.90;99.90;;;;;;5154300;27;20126;-71
2022/09/29 00:53:11;;;;;;;12.88;8.07;;;7.90;99.90;;;;;;5135829;27;20082;-70
2022/09/29 00:55:45;;;;;;;11.48;8.07;;;7.90;99.90;;;;;;5135843;27;20134;-70
2022/09/29 00:58:34;;;;;;;10.35;6.70;;;7.90;99.90;;;;;;5154630;27;20094;-70
2022/09/29 01:01:01;;;;;;;10.63;6.80;;;7.90;99.90;;;;;;5154153;27;20039;-70
2022/09/29 01:03:31;;;;;;;10.45;7.75;;;7.80;99.90;;;;;;5157877;27;20122;-70
2022/09/29 01:06:02;;;;;;;10.73;7.80;;;7.80;99.90;;;;;;5156333;27;20034;-70
2022/09/29 01:08:32;;;;;;;11.10;7.70;;;7.80;99.90;;;;;;5175391;27;20074;-70
2022/09/29 01:11:00;;;;;;;9.85;8.02;;;7.80;99.90;;;;;;5129142;27;20047;-70
2022/09/29 01:13:27;;;;;;;11.25;8.38;;;7.80;99.90;;;;;;5145634;27;20125;-71
2022/09/29 01:15:53;;;;;;;10.63;8.10;;;7.80;99.90;;;;;;5153123;27;20505;-71
2022/09/29 01:18:19;;;;;;;13.25;8.65;;;7.80;99.90;;;;;;5153926;27;20038;-71
2022/09/29 01:20:56;;;;;;;10.50;8.05;;;7.80;99.90;;;;;;5135120;27;20038;-70
2022/09/29 01:23:45;;;;;;;10.38;8.75;;;7.80;99.90;;;;;;5131817;28;20487;-71
2022/09/29 01:26:11;;;;;;;10.25;8.80;;;7.70;99.90;;;;;;5079065;27;20053;-70
2022/09/29 01:28:52;;;;;;;11.32;8.75;;;7.90;99.90;;;;;;5153631;27;20487;-71
2022/09/29 01:31:47;;;;;;;10.88;8.85;;;7.70;99.90;;;;;;5153401;27;20049;-71
2022/09/29 01:34:39;;;;;;;10.40;8.55;;;7.70;99.90;;;;;;5121418;27;20403;-70
2022/09/29 01:37:11;;;;;;;12.02;9.38;;;7.70;99.90;;;;;;5149333;27;20133;-71
2022/09/29 01:40:13;;;;;;;11.75;9.77;;;7.70;99.90;;;;;;5158019;27;20420;-71
2022/09/29 01:42:54;;;;;;;13.43;9.57;;;7.60;99.90;;;;;;5157041;27;20107;-71
2022/09/29 01:45:31;;;;;;;13.27;10.02;;;7.60;99.90;;;;;;5157752;27;20051;-71
2022/09/29 01:48:07;;;;;;;13.07;10.38;;;7.60;99.90;;;;;;5156411;27;20039;-70
2022/09/29 01:50:41;;;;;;;12.55;10.45;;;7.60;99.90;;;;;;5157642;27;20042;-70
2022/09/29 01:53:12;;;;;;;12.52;10.90;;;7.60;99.90;;;;;;5139250;27;20034;-71
2022/09/29 01:55:45;;;;;;;13.55;9.98;;;7.60;99.90;;;;;;5156930;27;20078;-70
2022/09/29 01:58:26;;;;;;;14.40;10.60;;;7.60;99.90;;;;;;5124268;27;20369;-70
2022/09/29 02:00:56;;;;;;;13.98;10.90;;;7.60;99.90;;;;;;5156900;27;20432;-71
2022/09/29 02:03:24;;;;;;;12.25;10.43;;;7.70;99.90;;;;;;5157716;27;20049;-70
2022/09/29 02:05:57;;;;;;;13.25;10.27;;;7.60;99.90;;;;;;5157616;27;20046;-71
2022/09/29 02:08:31;;;;;;;12.27;10.02;;;7.50;99.90;;;;;;5139444;27;20043;-71
2022/09/29 02:11:12;;;;;;;13.40;9.88;;;7.50;99.90;;;;;;5138613;27;20570;-70
2022/09/29 02:14:04;;;;;;;13.23;10.55;;;7.60;99.90;;;;;;5157646;27;20061;-71
2022/09/29 02:16:34;;;;;;;13.25;11.10;;;7.60;99.90;;;;;;5157618;27;20383;-71
2022/09/29 02:19:15;;;;;;;12.88;10.68;;;7.50;99.90;;;;;;5157565;27;20043;-71
2022/09/29 02:21:42;;;;;;;14.18;11.45;;;7.50;99.90;;;;;;5157022;27;20043;-71
2022/09/29 02:24:09;;;;;;;17.38;11.63;;;7.50;99.90;;;;;;5156968;27;20039;-71
2022/09/29 02:26:36;;;;;;;18.00;12.25;;;7.50;99.90;;;;;;5156043;27;20043;-71
2022/09/29 02:29:03;;;;;;;16.73;11.32;;;8.40;99.90;;;;;;5156625;27;20472;-71
2022/09/29 02:31:30;;;;;;;14.88;12.27;;;7.40;99.90;;;;;;5137887;27;20146;-71
2022/09/29 02:33:55;;;;;;;17.63;13.15;;;7.40;99.90;;;;;;5156284;27;20466;-71
2022/09/29 02:36:42;;;;;;;15.88;11.65;;;7.40;99.90;;;;;;5156128;27;20129;-70
2022/09/29 02:39:19;;;;;;;;;;;7.40;99.90;;;;;;5156624;27;20483;-71
2022/09/29 02:41:54;;;;;;;16.20;13.07;;;7.40;99.90;;;;;;5151797;27;19923;-71
2022/09/29 02:44:38;;;;;;;16.38;13.60;;;7.30;99.90;;;;;;5155709;27;20042;-70
2022/09/29 02:47:03;;;;;;;17.90;13.77;;;7.30;99.90;;;;;;5156446;27;20391;-71
2022/09/29 02:49:32;;;;;;;16.95;13.43;;;7.90;99.90;;;;;;5156750;27;20041;-71
2022/09/29 02:52:23;;;;;;;14.82;13.10;;;6.40;99.90;;;;;;5156477;27;20070;-71
2022/09/29 02:55:04;;;;;;;16.50;13.82;;;7.20;99.90;;;;;;5144907;27;20499;-71
2022/09/29 02:57:55;;;;;;;16.42;13.95;;;7.20;99.90;;;;;;5156784;27;20043;-71
2022/09/29 03:00:21;;;;;;;16.92;14.00;;;7.30;99.90;;;;;;5156169;27;20091;-71
2022/09/29 03:02:47;;;;;;;16.38;13.95;;;7.30;99.90;;;;;;5155632;27;20035;-71
2022/09/29 03:05:19;;;;;;;18.70;13.82;;;7.30;99.90;;;;;;5155987;27;20045;-71
2022/09/29 03:07:45;;;;;;;18.05;13.50;;;7.20;99.90;;;;;;5155508;27;20055;-71
2022/09/29 03:10:12;;;;;;;17.88;14.43;;;7.20;99.90;;;;;;5156437;27;20130;-71
2022/09/29 03:12:38;;;;;;;17.13;14.27;;;7.30;99.90;;;;;;5137351;27;20053;-71
2022/09/29 03:15:06;;;;;;;16.83;13.60;;;7.30;99.90;;;;;;5156118;27;20035;-70
2022/09/29 03:17:32;;;;;;;17.45;14.88;;;7.20;99.90;;;;;;5137273;27;20386;-71
2022/09/29 03:19:57;;;;;;;16.98;13.98;;;7.20;99.90;;;;;;5156143;27;20030;-71
2022/09/29 03:22:24;;;;;;;17.50;14.75;;;7.20;99.90;;;;;;5155095;27;20517;-71
2022/09/29 03:24:49;;;;;;;17.30;13.80;;;7.20;99.90;;;;;;5152789;27;20042;-71
2022/09/29 03:27:15;;;;;;;16.98;13.23;;;7.20;99.90;;;;;;5155858;27;20122;-71
2022/09/29 03:29:41;;;;;;;18.25;14.18;;;7.90;99.90;;;;;;5155811;27;20026;-71
2022/09/29 03:32:07;;;;;;;17.08;13.48;;;7.90;99.90;;;;;;5155427;27;20142;-70
2022/09/29 03:34:34;;;;;;;17.17;12.88;;;7.10;99.90;;;;;;5153714;27;20454;-71
2022/09/29 03:37:00;;;;;;;18.60;13.55;;;8.00;99.90;;;;;;5155289;27;20043;-71
2022/09/29 03:39:25;;;;;;;19.48;14.00;;;7.10;99.90;;;;;;5155557;27;20051;-70
2022/09/29 03:41:51;;;;;;;17.70;13.35;;;7.10;99.90;;;;;;5155613;27;20045;-71
2022/09/29 03:44:17;;;;;;;17.67;13.10;;;7.10;99.90;;;;;;5155359;27;20042;-71
2022/09/29 03:46:43;;;;;;;19.77;12.93;;;7.10;99.90;;;;;;5155759;27;20034;-71
2022/09/29 03:49:10;;;;;;;17.55;14.07;;;7.00;99.90;;;;;;5154801;27;20121;-71
2022/09/29 03:51:36;;;;;;;16.63;13.10;;;7.00;99.90;;;;;;5154819;27;20517;-71
2022/09/29 03:54:02;;;;;;;17.75;13.63;;;7.10;99.90;;;;;;5154460;27;20035;-71
2022/09/29 03:56:28;;;;;;;18.17;13.73;;;7.00;99.90;;;;;;5136188;27;20382;-71
2022/09/29 03:58:53;;;;;;;16.67;13.50;;;8.30;99.90;;;;;;5154456;27;20039;-71
2022/09/29 04:01:19;;;;;;;18.38;13.13;;;7.00;99.90;;;;;;5146388;27;20117;-71
2022/09/29 04:03:45;;;;;;;18.67;13.23;;;7.00;99.90;;;;;;5136078;27;20047;-71
2022/09/29 04:06:11;;;;;;;18.88;13.52;;;7.00;99.90;;;;;;5154019;27;20054;-71
2022/09/29 04:08:36;;;;;;;18.13;12.95;;;7.50;99.90;;;;;;5155155;27;20034;-71
2022/09/29 04:11:03;;;;;;;16.08;12.30;;;7.50;99.90;;;;;;5147832;27;20035;-71
2022/09/29 04:13:28;;;;;;;17.42;13.48;;;6.90;99.90;;;;;;5132885;27;20321;-71
2022/09/29 04:16:03;;;;;;;16.70;13.23;;;6.90;99.90;;;;;;5134151;27;20095;-70
2022/09/29 04:18:30;;;;;;;16.83;13.43;;;7.00;99.90;;;;;;5148124;27;20034;-70
2022/09/29 04:20:59;;;;;;;16.27;12.63;;;6.90;99.90;;;;;;5136472;27;20435;-71
2022/09/29 04:23:26;;;;;;;14.65;12.48;;;7.50;99.90;;;;;;5154782;27;20521;-71
2022/09/29 04:25:51;;;;;;;15.77;12.57;;;6.90;99.90;;;;;;5154872;27;20046;-71
2022/09/29 04:28:17;;;;;;;16.42;12.43;;;7.00;99.90;;;;;;5154765;27;20402;-71
2022/09/29 04:30:42;;;;;;;18.45;12.88;;;6.90;99.90;;;;;;5154536;27;20078;-71
2022/09/29 04:33:09;;;;;;;16.48;13.10;;;6.90;99.90;;;;;;5154445;27;20125;-71
2022/09/29 04:35:34;;;;;;;16.17;12.55;;;6.90;99.90;;;;;;5135155;27;20146;-71
2022/09/29 04:38:00;;;;;;;17.55;13.30;;;6.90;99.90;;;;;;5154075;27;20449;-71
2022/09/29 04:40:25;;;;;;;17.48;12.95;;;7.30;99.90;;;;;;5152496;27;20367;-70
2022/09/29 04:42:51;;;;;;;19.35;14.18;;;6.90;99.90;;;;;;5150191;27;20042;-71
2022/09/29 04:45:17;;;;;;;18.00;13.57;;;7.00;99.90;;;;;;5154291;27;20039;-71
2022/09/29 04:47:42;;;;;;;18.77;13.45;;;7.10;99.90;;;;;;5153224;27;20039;-71
2022/09/29 04:50:08;;;;;;;20.48;13.70;;;7.50;99.90;;;;;;5154108;27;20038;-71
2022/09/29 04:52:35;;;;;;;19.90;13.95;;;7.00;99.90;;;;;;5153789;27;20217;-71
2022/09/29 04:55:02;;;;;;;20.25;13.43;;;7.00;99.90;;;;;;5154364;27;20427;-71
2022/09/29 04:57:27;;;;;;;19.85;14.25;;;7.00;99.90;;;;;;5152919;27;20172;-72
2022/09/29 04:59:53;;;;;;;18.65;14.38;;;7.00;99.90;;;;;;5135284;27;20066;-71
2022/09/29 05:02:19;;;;;;;22.05;15.40;;;7.00;99.90;;;;;;5153703;27;20563;-71
2022/09/29 05:04:46;;;;;;;21.77;16.23;;;7.00;99.90;;;;;;5147022;27;20050;-70
2022/09/29 05:07:13;;;;;;;20.33;15.45;;;7.00;99.90;;;;;;5153619;27;20114;-71
2022/09/29 05:09:39;;;;;;;18.27;14.40;;;7.20;99.90;;;;;;5152989;27;20039;-71
2022/09/29 05:12:04;;;;;;;17.58;13.55;;;7.20;99.90;;;;;;5154141;27;20050;-70
2022/09/29 05:14:30;;;;;;;18.42;14.40;;;7.40;99.90;;;;;;5154008;27;20034;-71
2022/09/29 05:16:57;;;;;;;18.52;14.07;;;6.80;99.90;;;;;;5153372;27;20550;-71
2022/09/29 05:19:23;;;;;;;18.17;14.32;;;6.80;99.90;;;;;;5152552;27;20106;-71
2022/09/29 05:21:49;;;;;;;19.67;14.35;;;6.80;99.90;;;;;;5152965;27;20043;-71
2022/09/29 05:24:15;;;;;;;20.45;14.88;;;6.80;99.90;;;;;;5153624;27;20055;-71
2022/09/29 05:26:40;;;;;;;22.92;15.57;;;6.80;99.90;;;;;;5152418;27;20062;-71
2022/09/29 05:29:06;;;;;;;21.02;16.23;;;6.70;99.90;;;;;;5153369;27;20042;-71
2022/09/29 05:31:32;;;;;;;21.67;15.85;;;7.30;99.90;;;;;;5143476;27;20391;-72
2022/09/29 05:33:57;;;;;;;19.10;15.57;;;7.20;99.90;;;;;;5153297;27;20492;-71
2022/09/29 05:36:23;;;;;;;22.02;15.77;;;6.80;99.90;;;;;;5152865;27;20487;-71
2022/09/29 05:38:49;;;;;;;23.02;16.10;;;6.80;99.90;;;;;;5152742;27;20125;-72
2022/09/29 05:41:21;;;;;;;20.90;16.10;;;6.80;99.90;;;;;;5152162;27;20099;-72
2022/09/29 05:43:52;;;;;;;21.35;15.98;;;6.90;99.90;;;;;;5152835;27;20043;-72
2022/09/29 05:46:18;;;;;;;22.23;16.88;;;7.10;99.90;;;;;;5152624;27;20043;-73
2022/09/29 05:48:48;;;;;;;21.73;16.85;;;6.80;99.90;;;;;;5153094;27;20503;-72
2022/09/29 05:51:16;;;;;;;23.08;15.85;;;6.80;99.90;;;;;;5153062;27;20508;-72
2022/09/29 05:53:42;;;;;;;21.60;16.38;;;6.80;99.90;;;;;;5134495;27;20447;-73
2022/09/29 05:56:10;;;;;;;22.02;15.68;;;6.90;99.90;;;;;;5153354;27;20039;-72
2022/09/29 05:58:37;;;;;;;20.13;15.30;;;6.90;99.90;;;;;;5151987;27;20058;-73
2022/09/29 06:01:14;;;;;;;19.20;15.27;;;6.90;99.90;;;;;;5153169;27;20075;-72
2022/09/29 06:03:40;;;;;;;18.33;13.55;;;7.70;99.90;;;;;;5143389;27;20363;-72
2022/09/29 06:06:06;;;;;;;17.52;13.32;;;6.90;99.90;;;;;;5113848;28;20043;-72
2022/09/29 06:08:32;;;;;;;15.43;12.90;;;6.90;99.90;;;;;;5145488;27;20432;-73
2022/09/29 06:11:10;;;;;;;18.05;14.07;;;6.90;99.90;;;;;;5134645;27;20039;-73
2022/09/29 06:13:40;;;;;;;18.48;13.15;;;6.90;99.90;;;;;;5134781;27;20070;-72
2022/09/29 06:16:07;;;;;;;17.40;13.57;;;6.90;99.90;;;;;;5151685;27;20090;-72
2022/09/29 06:18:33;;;;;;;18.33;13.85;;;7.00;99.90;;;;;;5151205;27;20047;-73
2022/09/29 06:21:07;;;;;;;16.60;13.77;;;6.90;99.90;;;;;;5154312;27;20479;-72
2022/09/29 06:23:33;;;;;;;19.90;14.73;;;6.90;99.90;;;;;;5148824;27;20039;-72
2022/09/29 06:26:00;;;;;;;20.75;14.65;;;7.00;99.90;;;;;;5135560;27;20054;-72
2022/09/29 06:28:27;;;;;;;18.23;14.38;;;7.00;99.90;;;;;;5116470;27;20042;-72
2022/09/29 06:30:59;;;;;;;19.35;14.30;;;7.10;99.90;;;;;;5134845;27;20046;-72
2022/09/29 06:33:26;;;;;;;18.48;14.82;;;7.10;99.90;;;;;;5116881;27;20503;-72
2022/09/29 06:38:36;;;;;;;17.30;14.90;;;7.20;99.90;;;;;;5151666;27;20133;-73
2022/09/29 06:41:01;;;;;;;18.40;15.00;;;8.60;99.90;;;;;;5150761;27;20122;-73
2022/09/29 06:43:27;;;;;;;17.65;15.10;;;7.60;99.90;;;;;;5115241;27;20393;-71
2022/09/29 06:45:53;;;;;;;19.13;14.63;;;8.20;99.90;;;;;;5116636;27;20047;-73
2022/09/29 06:48:18;;;;;;;17.63;14.35;;;7.60;99.90;;;;;;5135436;27;20042;-72
2022/09/29 06:50:44;;;;;;;18.40;15.18;;;7.80;99.90;;;;;;5135256;27;20039;-72
2022/09/29 06:53:10;;;;;;;18.88;14.20;;;7.80;99.90;;;;;;5135218;27;20035;-74
2022/09/29 06:55:35;;;;;;;19.48;14.73;;;8.10;99.90;;;;;;5135515;27;20092;-71
2022/09/29 06:58:01;;;;;;;19.88;14.95;;;8.20;99.90;;;;;;5134875;27;20452;-72
2022/09/29 07:00:27;;;;;;;18.25;13.68;;;8.00;99.90;;;;;;5134413;27;20088;-72
2022/09/29 07:02:53;;;;;;;17.77;13.80;;;8.10;99.90;;;;;;5099366;27;20492;-72
2022/09/29 07:05:19;;;;;;;18.45;13.05;;;8.10;99.90;;;;;;5135576;27;20049;-72
2022/09/29 07:07:47;;;;;;;17.52;14.02;;;8.20;99.90;;;;;;5135200;27;20420;-72
2022/09/29 07:10:12;;;;;;;19.98;13.60;;;8.30;99.90;;;;;;5135002;27;20034;-72
2022/09/29 07:12:38;;;;;;;18.33;13.02;;;8.40;99.90;;;;;;5133605;27;20460;-72
2022/09/29 07:15:04;;;;;;;16.73;12.65;;;8.60;99.90;;;;;;5133745;27;20103;-72
2022/09/29 07:17:30;;;;;;;15.60;11.98;;;8.70;99.90;;;;;;5134440;27;20035;-72
2022/09/29 07:19:56;;;;;;;16.60;12.95;;;8.80;99.90;;;;;;5135265;27;20054;-72
2022/09/29 07:22:22;;;;;;;17.48;12.65;;;9.30;99.90;;;;;;5134874;27;20490;-72
2022/09/29 07:24:49;;;;;;;19.20;13.20;;;8.80;99.90;;;;;;5134663;27;20071;-72
2022/09/29 07:27:23;;;;;;;17.38;12.55;;;8.80;99.90;;;;;;5116817;27;20061;-72
2022/09/29 07:29:52;;;;;;;15.82;12.95;;;9.00;99.90;;;;;;5150863;27;20125;-72
2022/09/29 07:32:18;;;;;;;15.52;13.50;;;8.90;99.90;;;;;;5133391;27;20058;-72
2022/09/29 07:34:44;;;;;;;16.52;13.15;;;9.00;99.90;;;;;;5134779;27;20142;-72
2022/09/29 07:37:10;;;;;;;16.00;11.73;;;11.10;99.90;;;;;;5134601;27;20220;-72
2022/09/29 07:39:36;;;;;;;12.98;9.95;;;13.20;99.90;;;;;;5134671;27;20118;-72
2022/09/29 07:42:02;;;;;;;11.25;9.10;;;15.10;99.90;;;;;;5134387;27;20043;-73
2022/09/29 07:44:30;;;;;;;12.63;9.75;;;14.50;99.90;;;;;;5134558;27;20112;-72
2022/09/29 07:46:56;;;;;;;14.70;9.90;;;14.30;99.90;;;;;;5134183;27;20087;-72
2022/09/29 07:49:22;;;;;;;12.27;9.45;;;13.50;99.90;;;;;;5115939;27;20047;-72
2022/09/29 07:51:48;;;;;;;13.75;9.45;;;13.60;99.90;;;;;;5114596;27;20083;-72
2022/09/29 07:54:14;;;;;;;12.60;10.63;;;13.40;99.90;;;;;;5134381;27;20384;-72
2022/09/29 07:56:39;;;;;;;13.70;10.63;;;13.20;99.90;;;;;;5134247;27;20066;-72
2022/09/29 07:59:05;;;;;;;13.13;10.63;;;13.30;99.90;;;;;;5134551;27;20085;-72
2022/09/29 08:01:31;;;;;;;13.80;10.43;;;15.80;99.90;;;;;;5133890;27;20046;-72
2022/09/29 08:03:57;;;;;;;13.68;9.88;;;18.20;99.90;;;;;;5132814;27;20078;-72
2022/09/29 08:06:24;;;;;;;12.52;9.88;;;18.70;99.90;;;;;;5134161;27;20483;-72
2022/09/29 08:08:51;;;;;;;12.93;9.85;;;17.80;99.90;;;;;;5134124;27;20054;-72
2022/09/29 08:11:22;;;;;;;13.00;9.85;;;17.00;99.90;;;;;;5133548;27;20039;-72
2022/09/29 08:13:50;;;;;;;14.45;10.80;;;16.40;99.90;;;;;;5133804;27;20078;-72
2022/09/29 08:16:16;;;;;;;11.60;9.75;;;15.90;99.90;;;;;;5115262;27;20092;-71
2022/09/29 08:18:43;;;;;;;12.63;10.20;;;15.60;99.90;;;;;;5133777;27;20455;-71
2022/09/29 08:21:10;;;;;;;10.93;9.70;;;15.40;99.90;;;;;;5133478;27;20036;-71
2022/09/29 08:23:37;;;;;;;12.98;10.35;;;15.30;99.90;;;;;;5133681;27;20047;-71
2022/09/29 08:26:08;;;;;;;13.68;10.82;;;17.30;99.90;;;;;;5133696;27;20353;-71
2022/09/29 08:28:35;;;;;;;12.85;10.25;;;19.80;99.90;;;;;;5133713;27;20043;-71
2022/09/29 08:31:05;;;;;;;12.43;9.98;;;22.10;99.90;;;;;;5133288;27;20043;-71
2022/09/29 08:33:31;;;;;;;13.07;9.05;;;24.00;99.90;;;;;;5134159;27;20043;-71
2022/09/29 08:35:57;;;;;;;11.95;8.73;;;25.50;99.90;;;;;;5149364;27;20074;-71
2022/09/29 08:38:25;;;;;;;11.15;9.40;;;26.80;98.70;;;;;;5133703;27;20100;-72
2022/09/29 08:40:50;;;;;;;10.02;7.78;;;27.90;97.60;;;;;;5133460;27;20501;-72
2022/09/29 08:43:39;;;;;;;10.93;7.43;;;28.40;95.20;;;;;;5114563;27;20039;-72
2022/09/29 08:46:12;;;;;;;9.15;7.38;;;29.40;93.90;;;;;;5131184;27;20047;-72
2022/09/29 08:48:44;;;;;;;9.00;7.18;;;30.00;92.90;;;;;;5131983;27;20096;-72
2022/09/29 08:51:32;;;;;;;8.15;6.60;;;30.30;92.00;;;;;;5132828;27;20092;-72
2022/09/29 08:54:15;;;;;;;8.98;6.25;;;30.40;90.10;;;;;;5149237;27;20043;-72
2022/09/29 08:56:41;;;;;;;7.95;6.43;;;30.80;88.30;;;;;;5133140;27;20524;-72
2022/09/29 08:59:10;;;;;;;9.98;6.70;;;31.00;88.10;;;;;;5097474;27;20043;-71
2022/09/29 09:02:06;;;;;;;8.18;6.45;;;31.40;86.90;;;;;;5114438;27;20083;-73
2022/09/29 09:04:42;;;;;;;10.13;6.35;;;31.50;86.00;;;;;;5132952;27;20046;-72
2022/09/29 09:07:34;;;;;;;8.45;5.82;;;31.70;84.40;;;;;;5133207;27;20100;-73
2022/09/29 09:10:18;;;;;;;9.07;5.90;;;32.30;83.30;;;;;;5114831;28;20206;-72
2022/09/29 09:12:57;;;;;;;6.72;5.20;;;33.10;82.60;;;;;;5132733;27;20083;-73
2022/09/29 09:15:43;;;;;;;8.40;5.93;;;33.80;80.80;;;;;;5132645;27;20043;-79
2022/09/29 09:18:15;;;;;;;8.80;6.00;;;34.10;80.30;;;;;;5132757;28;20088;-79
2022/09/29 09:20:59;;;;;;;7.05;5.65;;;34.50;79.00;;;;;;5113525;28;20368;-79
2022/09/29 09:23:40;;;;;;;7.20;5.28;;;34.80;78.70;;;;;;5119931;27;20054;-79
2022/09/29 09:26:07;;;;;;;6.20;5.00;;;35.00;75.90;;;;;;5152186;27;20349;-79
2022/09/29 09:28:38;;;;;;;6.80;4.68;;;35.20;75.70;;;;;;5116892;27;20039;-79
2022/09/29 09:31:27;;;;;;;6.53;4.30;;;35.30;75.20;;;;;;5153359;27;20240;-79
2022/09/29 09:34:03;;;;;;;7.55;4.45;;;35.60;74.10;;;;;;5141976;27;20058;-80
2022/09/29 09:36:36;;;;;;;5.18;4.10;;;35.90;72.40;;;;;;5152910;27;20055;-79
2022/09/29 09:39:29;;;;;;;5.50;3.40;;;36.00;72.80;;;;;;5153222;27;20428;-79
2022/09/29 09:41:58;;;;;;;6.28;3.55;;;35.80;70.70;;;;;;5132629;27;20046;-75
2022/09/29 09:44:34;;;;;;;6.55;3.45;;;35.20;69.50;;;;;;5153237;27;20593;-76
2022/09/29 09:47:28;;;;;;;3.85;2.90;;;34.60;69.90;;;;;;5132613;28;20058;-76
2022/09/29 09:50:10;;;;;;;6.15;2.90;;;34.80;68.60;;;;;;5106624;28;20051;-77
2022/09/29 09:52:46;;;;;;;3.83;2.72;;;35.50;69.40;;;;;;5132393;28;20043;-77
2022/09/29 09:55:23;;;;;;;3.58;2.40;;;35.90;67.90;;;;;;5119476;27;20039;-77
2022/09/29 09:58:31;;;;;;;4.85;2.67;;;36.50;67.70;;;;;;5138676;27;20447;-77
2022/09/29 10:01:11;;;;;;;4.47;2.47;;;36.80;66.10;;;;;;5157419;27;20050;-77
2022/09/29 10:03:37;;;;;;;4.18;2.70;;;37.00;66.60;;;;;;5129428;27;20129;-74
2022/09/29 10:06:06;;;;;;;5.68;2.60;;;37.50;65.80;;;;;;5150324;27;20050;-77
2022/09/29 10:08:37;;;;;;;4.05;2.17;;;37.80;64.60;;;;;;5157564;27;20058;-77
2022/09/29 10:11:04;;;;;;;3.45;2.20;;;38.20;64.00;;;;;;5138397;27;20042;-76
2022/09/29 10:13:30;;;;;;;3.70;1.83;;;38.40;63.70;;;;;;5156422;27;20039;-78
2022/09/29 10:16:12;;;;;;;3.97;2.00;;;38.70;62.20;;;;;;5120331;27;20046;-77
2022/09/29 10:18:43;;;;;;;3.45;2.30;;;39.10;61.90;;;;;;5126446;27;20393;-73
2022/09/29 10:21:25;;;;;;;3.45;2.20;;;39.70;60.40;;;;;;5138389;27;20051;-72
2022/09/29 10:23:53;;;;;;;5.65;2.20;;;39.90;59.90;;;;;;5157098;27;20150;-72
2022/09/29 10:26:43;;;;;;;3.95;2.30;;;40.10;58.60;;;;;;5156656;27;20555;-72
2022/09/29 10:29:18;;;;;;;2.95;2.08;;;40.00;57.80;;;;;;5156741;27;20049;-72
2022/09/29 10:31:58;;;;;;;3.20;1.88;;;40.20;57.40;;;;;;5156760;27;20125;-72
2022/09/29 10:34:24;;;;;;;2.67;1.73;;;40.40;57.10;;;;;;5138234;27;20095;-72
2022/09/29 10:36:59;;;;;;;3.30;1.85;;;40.70;56.00;;;;;;5156357;27;20440;-72
2022/09/29 10:40:02;;;;;;;3.22;1.73;;;40.90;56.20;;;;;;5156591;27;20046;-72
2022/09/29 10:42:38;;;;;;;4.47;2.10;;;41.30;56.80;;;;;;5137792;27;20050;-73
2022/09/29 10:45:06;;;;;;;4.63;2.40;;;41.60;55.20;;;;;;5137767;27;20057;-73
2022/09/29 10:47:33;;;;;;;2.78;1.88;;;41.50;54.40;;;;;;5156488;27;20042;-73
2022/09/29 10:50:15;;;;;;;3.50;2.20;;;40.70;54.50;;;;;;5137777;27;20046;-73
2022/09/29 10:52:51;;;;;;;3.13;2.10;;;40.60;54.00;;;;;;5147351;27;20118;-73
2022/09/29 10:55:20;;;;;;;2.70;1.73;;;40.70;53.50;;;;;;5133947;27;20047;-72
2022/09/29 10:57:47;;;;;;;2.38;1.77;;;40.60;53.00;;;;;;5133272;27;20434;-73
2022/09/29 11:00:28;;;;;;;3.25;1.70;;;40.60;52.60;;;;;;5100563;27;20035;-73
2022/09/29 11:03:01;;;;;;;2.40;1.58;;;40.70;52.00;;;;;;5116988;27;20055;-73
2022/09/29 11:05:27;;;;;;;2.22;1.67;;;40.00;51.70;;;;;;5135365;27;20050;-73
2022/09/29 11:07:53;;;;;;;2.60;1.73;;;39.60;52.20;;;;;;5117113;27;20043;-72
2022/09/29 11:10:34;;;;;;;2.15;1.50;;;39.70;52.10;;;;;;5135360;27;20376;-73
2022/09/29 11:13:18;;;;;;;2.55;1.80;;;40.00;52.30;;;;;;5135115;27;20111;-72
2022/09/29 11:15:43;;;;;;;2.58;1.40;;;40.00;52.10;;;;;;5134681;27;20043;-72
2022/09/29 11:18:28;;;;;;;2.20;1.38;;;40.20;52.00;;;;;;5135318;27;20043;-72
2022/09/29 11:21:17;;;;;;;3.15;1.50;;;40.40;51.70;;;;;;5134937;27;20039;-73
2022/09/29 11:24:06;;;;;;;2.08;1.40;;;40.40;50.10;;;;;;5134966;27;20116;-72
2022/09/29 11:26:38;;;;;;;2.55;1.25;;;38.10;51.30;;;;;;5122289;27;20059;-72
2022/09/29 11:29:31;;;;;;;2.35;1.40;;;36.10;51.70;;;;;;5116181;27;20448;-72
2022/09/29 11:32:03;;;;;;;2.53;1.42;;;33.90;52.90;;;;;;5099249;27;20068;-72
2022/09/29 11:34:58;;;;;;;3.55;1.50;;;32.40;54.50;;;;;;5132551;27;20051;-72
2022/09/29 11:37:31;;;;;;;3.20;1.53;;;31.30;55.30;;;;;;5132053;27;20107;-71
2022/09/29 11:40:17;;;;;;;3.05;1.83;;;30.10;56.40;;;;;;5116556;27;20370;-71
2022/09/29 11:43:14;;;;;;;2.60;1.50;;;28.90;57.50;;;;;;5150034;27;20047;-72
2022/09/29 11:46:07;;;;;;;3.50;1.80;;;27.40;59.30;;;;;;5081619;27;20055;-71
2022/09/29 11:48:59;;;;;;;3.40;1.50;;;26.40;61.40;;;;;;5119892;27;20043;-72
2022/09/29 11:52:00;;;;;;;2.25;1.40;;;26.70;62.40;;;;;;5115783;27;20058;-71
2022/09/29 11:54:35;;;;;;;2.95;1.70;;;28.70;60.90;;;;;;5134349;27;20062;-72
2022/09/29 11:57:12;;;;;;;2.60;1.70;;;29.30;59.50;;;;;;5133898;27;20400;-72
2022/09/29 12:00:05;;;;;;;3.40;1.67;;;29.70;59.60;;;;;;5134547;27;20042;-72
2022/09/29 12:02:40;;;;;;;2.97;1.67;;;31.40;58.30;;;;;;5115501;27;20075;-72
2022/09/29 12:05:23;;;;;;;2.83;1.80;;;31.90;56.80;;;;;;5133376;27;20047;-71
2022/09/29 12:08:30;;;;;;;2.22;1.50;;;30.90;56.60;;;;;;5134416;27;20114;-71
2022/09/29 12:11:17;;;;;;;3.03;1.55;;;29.30;57.80;;;;;;5116218;27;20110;-71
2022/09/29 12:13:45;;;;;;;2.20;1.20;;;28.20;58.90;;;;;;5135871;27;20057;-73
2022/09/29 12:16:17;;;;;;;1.60;1.20;;;27.60;59.40;;;;;;5154564;27;20062;-73
2022/09/29 12:19:16;;;;;;;3.63;1.30;;;26.70;60.80;;;;;;5153989;27;20078;-73
2022/09/29 12:21:47;;;;;;;2.92;1.50;;;25.80;61.30;;;;;;5136520;27;20058;-72
2022/09/29 12:24:24;;;;;;;2.47;1.40;;;25.40;62.50;;;;;;5113850;27;20039;-70
2022/09/29 12:26:50;;;;;;;2.58;1.50;;;24.70;63.00;;;;;;5132138;27;20043;-72
2022/09/29 12:29:34;;;;;;;3.05;1.40;;;23.90;64.00;;;;;;5133754;27;20035;-72
2022/09/29 12:32:08;;;;;;;2.65;1.30;;;23.20;65.60;;;;;;5114716;27;20106;-74
2022/09/29 12:34:54;;;;;;;2.90;1.10;;;22.70;66.90;;;;;;5133459;27;20065;-71
2022/09/29 12:37:48;;;;;;;1.55;0.98;;;22.20;68.00;;;;;;5133343;27;20047;-71
2022/09/29 12:40:31;;;;;;;2.50;1.00;;;21.70;69.40;;;;;;5079678;27;20142;-71
2022/09/29 12:43:24;;;;;;;1.10;1.00;;;21.20;70.90;;;;;;5133355;27;20054;-71
2022/09/29 12:46:05;;;;;;;2.85;1.10;;;20.70;71.50;;;;;;5133003;27;20578;-71
2022/09/29 12:48:57;;;;;;;3.13;1.10;;;20.40;72.50;;;;;;5115240;27;20139;-71
2022/09/29 12:51:35;;;;;;;2.45;1.20;;;20.00;73.10;;;;;;5114591;27;20179;-71
2022/09/29 12:54:23;;;;;;;1.20;0.90;;;19.90;74.00;;;;;;5133255;27;20039;-71
2022/09/29 12:56:57;;;;;;;1.63;1.00;;;19.70;73.80;;;;;;5133086;27;20042;-72
2022/09/29 12:59:52;;;;;;;1.58;1.00;;;19.70;74.70;;;;;;5114789;27;20062;-72
2022/09/29 13:02:52;;;;;;;1.48;0.95;;;19.30;74.90;;;;;;5103287;27;20058;-72
2022/09/29 13:05:24;;;;;;;2.78;1.40;;;19.10;75.20;;;;;;5099986;27;20055;-72
2022/09/29 13:08:27;;;;;;;2.88;1.30;;;19.00;76.40;;;;;;5133181;27;20043;-72
2022/09/29 13:11:07;;;;;;;1.75;1.17;;;18.90;76.80;;;;;;5114140;27;20312;-72
2022/09/29 13:13:42;;;;;;;2.05;1.10;;;18.70;77.40;;;;;;5133473;27;20411;-72